Bellburn, West Virginia
Current Conditions -  °F | °C
As of 4:35 PM on Thursday 18 Dec 2014 (Local Time) from KLWB Reporting Station
Overcast Overcast  
Wind Chill: 29°   Ceiling: 8000
Heat Index: 36°   Visibility: 10mi
Dew Point: 22°   Wind: 8mph
Humidity: 57%   Direction: 270°W
Pressure: 30.07"   Gusts: NA
Location:  38.0444°N, 80.7233°W
Report Text: KLWB 182135Z AUTO 27007KT 10SM OVC080 02/M06 A3007 RMK AO2 T00211057
Loading
Personal Weather Stations






























Interactive Weather Map New forecast layout! Learn more

10-Day Weather Forecast

Advertisements
Track Severe Weather on mobile